Main page
Satellite images 10-day forecastsClimateMarine weather Cyclones Lightning AirportsFAQ Newsletter About
Weather : Europe Africa North America South America Asia Australia-Oceania Others
Languages Contact

Birmingham, England

Birmingham Airport

latitude: 52-27N, longitude: 001-44W, elevation: 99 m


METAR: EGBB 070920Z AUTO 22006KT 180V250 9999 FEW020/// SCT039/// BKN049/// 11/06 Q1015
TAF: EGBB 070500Z 0706/0806 24010KT 9999 FEW030 BECMG 0709/0712 VRB03KT PROB40 TEMPO 0709/0718 30010KT 6000 SHRA

Time: 10:37 (09:37 UTC)

Current weather observation

The report was made 17 minutes ago, at 09:20 UTC
Wind 6 kt from the Southwest, varying between South and West/Southwest
Temperature 11°C
Humidity 71%
Pressure 1015 hPa
Visibility 10 km or more

Change units

Forecast

The report was made 4 hours and 37 minutes ago, at 05:00 UTC
Forecast valid from 07 at 06 UTC to 08 at 06 UTC
Wind 10 kt from the West/Southwest
Visibility 10 km or more
Few clouds at a height of 3000 ft
Becoming
from 07 at 09 UTC to 07 at 12 UTC
Wind 3 kt from variable directions
Probability 40% :
Temporary
from 07 at 09 UTC to 07 at 18 UTC
Wind 10 kt from the West/Northwest
Visibility: 6000 m
rain showers
The information on this site is subject to a disclaimer
Weather : Europe Africa North America South America Asia Australia-Oceania Others
Satellite images 10-day forecastsClimateMarine weather Cyclones Lightning AirportsFAQ Languages Contact Newsletter About